createdAt,value
2019-03-22T00:01:01.202Z,12.11
2019-03-22T00:02:06.897Z,12.11
2019-03-22T00:03:12.530Z,12.09
2019-03-22T00:04:18.370Z,12.07
2019-03-22T00:05:25.105Z,12.07
2019-03-22T00:06:30.669Z,12.05
2019-03-22T00:07:36.578Z,12.03
2019-03-22T00:08:42.357Z,12.03
2019-03-22T00:09:48.203Z,12.01
2019-03-22T00:10:54.165Z,12.00
2019-03-22T00:12:04.190Z,11.98
2019-03-22T00:13:09.353Z,11.96
2019-03-22T00:14:15.025Z,11.95
2019-03-22T00:15:20.741Z,11.93
2019-03-22T00:16:26.544Z,11.92
2019-03-22T00:17:32.762Z,11.92
2019-03-22T00:18:38.343Z,11.91
2019-03-22T00:19:43.965Z,11.89
2019-03-22T00:20:49.902Z,11.88
2019-03-22T00:21:55.651Z,11.89
2019-03-22T00:23:01.200Z,11.88
2019-03-22T00:24:06.820Z,11.87
2019-03-22T00:25:12.682Z,11.87
2019-03-22T00:26:18.305Z,11.86
2019-03-22T00:27:23.991Z,11.86
2019-03-22T00:28:29.574Z,11.84
2019-03-22T00:29:35.249Z,11.85
2019-03-22T00:30:41.160Z,11.84
2019-03-22T00:31:46.721Z,11.84
2019-03-22T00:32:54.062Z,11.83
2019-03-22T00:34:00.359Z,11.82
2019-03-22T00:35:06.800Z,11.80
2019-03-22T00:36:12.782Z,11.81
2019-03-22T00:37:18.401Z,11.79
2019-03-22T00:38:24.239Z,11.77
2019-03-22T00:39:29.955Z,11.76
2019-03-22T00:40:35.842Z,11.76
2019-03-22T00:41:41.599Z,11.75
2019-03-22T00:42:47.451Z,11.74
2019-03-22T00:43:53.122Z,11.73
2019-03-22T00:44:58.812Z,11.73
2019-03-22T00:46:04.508Z,11.73
2019-03-22T00:47:10.278Z,11.73
2019-03-22T00:48:15.937Z,11.71
2019-03-22T00:49:21.797Z,11.70
2019-03-22T00:50:27.734Z,11.69
2019-03-22T00:51:33.312Z,11.67
2019-03-22T00:52:39.301Z,11.66
2019-03-22T00:53:44.907Z,11.65
2019-03-22T00:54:50.608Z,11.63
2019-03-22T00:55:56.191Z,11.62
2019-03-22T00:57:02.096Z,11.61
2019-03-22T00:58:08.203Z,11.61
2019-03-22T00:59:14.067Z,11.60
2019-03-22T01:00:19.779Z,11.59
2019-03-22T01:01:25.860Z,11.59
2019-03-22T01:02:31.538Z,11.58
2019-03-22T01:03:39.660Z,11.58
2019-03-22T01:04:45.285Z,11.58
2019-03-22T01:05:50.937Z,11.57
2019-03-22T01:06:56.613Z,11.55
2019-03-22T01:08:02.924Z,11.53
2019-03-22T01:09:08.585Z,11.53
2019-03-22T01:10:14.612Z,11.50
2019-03-22T01:11:20.356Z,11.50
2019-03-22T01:12:26.316Z,11.50
2019-03-22T01:13:32.297Z,11.48
2019-03-22T01:14:38.011Z,11.47
2019-03-22T01:15:43.601Z,11.46
2019-03-22T01:16:49.229Z,11.46
2019-03-22T01:17:54.888Z,11.45
2019-03-22T01:19:00.532Z,11.44
2019-03-22T01:20:06.891Z,11.43
2019-03-22T01:21:12.576Z,11.41
2019-03-22T01:22:18.261Z,11.41
2019-03-22T01:23:23.826Z,11.40
2019-03-22T01:24:29.358Z,11.41
2019-03-22T01:25:35.281Z,11.40
2019-03-22T01:26:41.576Z,11.40
2019-03-22T01:27:47.525Z,11.39
2019-03-22T01:28:53.159Z,11.39
2019-03-22T01:29:58.792Z,11.38
2019-03-22T01:31:05.208Z,11.36
2019-03-22T01:32:10.855Z,11.38
2019-03-22T01:33:17.121Z,11.36
2019-03-22T01:34:22.761Z,11.37
2019-03-22T01:35:28.610Z,11.35
2019-03-22T01:36:34.496Z,11.35
2019-03-22T01:37:40.149Z,11.35
2019-03-22T01:38:45.787Z,11.34
2019-03-22T01:39:51.320Z,11.33
2019-03-22T01:40:56.903Z,11.34
2019-03-22T01:42:02.489Z,11.33
2019-03-22T01:43:08.719Z,11.32
2019-03-22T01:44:14.505Z,11.31
2019-03-22T01:45:20.633Z,11.30
2019-03-22T01:46:26.256Z,11.29
2019-03-22T01:47:32.299Z,11.29
2019-03-22T01:48:37.817Z,11.28
2019-03-22T01:49:43.691Z,11.27
2019-03-22T01:50:49.212Z,11.26
2019-03-22T01:51:55.327Z,11.25
2019-03-22T01:53:00.930Z,11.25
2019-03-22T01:54:06.492Z,11.24
2019-03-22T01:55:15.378Z,11.17
2019-03-22T01:56:20.929Z,11.17
2019-03-22T01:57:26.579Z,11.21
2019-03-22T01:58:32.146Z,11.18
2019-03-22T01:59:37.947Z,11.19
2019-03-22T02:00:43.669Z,11.18
2019-03-22T02:01:49.355Z,11.18
2019-03-22T02:02:55.051Z,11.17
2019-03-22T02:04:00.720Z,11.17
2019-03-22T02:05:06.789Z,11.16
2019-03-22T02:06:12.810Z,11.15
2019-03-22T02:07:18.512Z,11.14
2019-03-22T02:08:24.155Z,11.14
2019-03-22T02:09:29.729Z,11.13
2019-03-22T02:10:35.468Z,11.12
2019-03-22T02:11:41.346Z,11.12
2019-03-22T02:12:47.032Z,11.06
2019-03-22T02:13:53.052Z,11.09
2019-03-22T02:14:58.661Z,11.09
2019-03-22T02:16:04.339Z,11.07
2019-03-22T02:17:10.069Z,11.06
2019-03-22T02:18:15.932Z,11.05
2019-03-22T02:19:21.907Z,11.03
2019-03-22T02:20:27.636Z,11.02
2019-03-22T02:21:34.034Z,11.01
2019-03-22T02:22:39.722Z,11.01
2019-03-22T02:23:45.217Z,11.01
2019-03-22T02:24:50.750Z,11.01
2019-03-22T02:25:56.384Z,11.01
2019-03-22T02:27:01.981Z,11.01
2019-03-22T02:28:07.831Z,11.01
2019-03-22T02:29:13.474Z,10.99
2019-03-22T02:30:19.449Z,10.98
2019-03-22T02:31:24.962Z,10.97
2019-03-22T02:32:30.826Z,10.96
2019-03-22T02:33:36.732Z,10.95
2019-03-22T02:34:42.510Z,10.95
2019-03-22T02:35:48.394Z,10.93
2019-03-22T02:36:54.779Z,10.92
2019-03-22T02:38:00.601Z,10.91
2019-03-22T02:39:07.427Z,10.91
2019-03-22T02:40:13.474Z,10.90
2019-03-22T02:41:19.090Z,10.89
2019-03-22T02:42:24.717Z,10.88
2019-03-22T02:43:30.758Z,10.87
2019-03-22T02:44:36.666Z,10.86
2019-03-22T02:45:42.859Z,10.85
2019-03-22T02:46:50.917Z,10.84
2019-03-22T02:47:56.567Z,10.83
2019-03-22T02:49:02.148Z,10.83
2019-03-22T02:50:18.091Z,10.81
2019-03-22T02:51:16.360Z,10.81
2019-03-22T02:52:21.891Z,10.81
2019-03-22T02:53:27.488Z,10.81
2019-03-22T02:54:33.382Z,10.81
2019-03-22T02:55:39.507Z,10.80
2019-03-22T02:56:46.125Z,10.80
2019-03-22T02:57:51.777Z,10.80
2019-03-22T02:58:59.350Z,10.80
2019-03-22T03:00:05.981Z,10.81
2019-03-22T03:01:12.023Z,10.81
2019-03-22T03:02:17.729Z,10.80
2019-03-22T03:03:23.436Z,10.81
2019-03-22T03:04:29.435Z,10.75
2019-03-22T03:05:35.503Z,10.75
2019-03-22T03:06:41.161Z,10.81
2019-03-22T03:07:46.940Z,10.78
2019-03-22T03:08:52.600Z,10.83
2019-03-22T03:09:58.873Z,10.83
2019-03-22T03:11:05.023Z,10.83
2019-03-22T03:12:10.770Z,10.83
2019-03-22T03:13:16.802Z,10.80
2019-03-22T03:14:22.849Z,10.85
2019-03-22T03:15:28.512Z,10.84
2019-03-22T03:16:34.278Z,10.83
2019-03-22T03:17:39.978Z,10.83
2019-03-22T03:18:45.717Z,10.83
2019-03-22T03:19:51.371Z,10.82
2019-03-22T03:20:57.096Z,10.82
2019-03-22T03:22:02.765Z,10.81
2019-03-22T03:23:08.823Z,10.82
2019-03-22T03:24:14.501Z,10.82
2019-03-22T03:25:20.156Z,10.82
2019-03-22T03:26:25.905Z,10.82
2019-03-22T03:27:31.840Z,10.83
2019-03-22T03:28:37.815Z,10.83
2019-03-22T03:29:43.746Z,10.84
2019-03-22T03:30:49.363Z,10.84
2019-03-22T03:31:55.402Z,10.86
2019-03-22T03:33:01.197Z,10.87
2019-03-22T03:34:06.877Z,10.86
2019-03-22T03:35:12.784Z,10.87
2019-03-22T03:36:18.595Z,10.87
2019-03-22T03:37:25.064Z,10.88
2019-03-22T03:38:34.058Z,10.88
2019-03-22T03:39:39.754Z,10.88
2019-03-22T03:40:45.514Z,10.88
2019-03-22T03:41:51.813Z,10.88
2019-03-22T03:42:57.985Z,10.88
2019-03-22T03:44:03.921Z,10.88
2019-03-22T03:45:18.420Z,10.89
2019-03-22T03:46:24.113Z,10.89
2019-03-22T03:47:29.834Z,10.89
2019-03-22T03:48:36.296Z,10.89
2019-03-22T03:49:42.435Z,10.89
2019-03-22T03:50:48.448Z,10.89
2019-03-22T03:51:54.167Z,10.88
2019-03-22T03:53:00.043Z,10.89
2019-03-22T03:54:05.704Z,10.89
2019-03-22T03:55:11.479Z,10.90
2019-03-22T03:56:17.170Z,10.89
2019-03-22T03:57:22.878Z,10.88
2019-03-22T03:58:28.777Z,10.87
2019-03-22T03:59:34.353Z,10.87
2019-03-22T04:00:40.154Z,10.86
2019-03-22T04:01:46.217Z,10.86
2019-03-22T04:02:51.894Z,10.84
2019-03-22T04:03:57.956Z,10.83
2019-03-22T04:05:03.641Z,10.82
2019-03-22T04:06:09.412Z,10.81
2019-03-22T04:07:15.058Z,10.80
2019-03-22T04:08:20.644Z,10.79
2019-03-22T04:09:26.575Z,10.78
2019-03-22T04:10:32.161Z,10.77
2019-03-22T04:11:38.014Z,10.76
2019-03-22T04:12:43.992Z,10.76
2019-03-22T04:13:49.530Z,10.75
2019-03-22T04:14:55.152Z,10.73
2019-03-22T04:16:03.309Z,10.72
2019-03-22T04:17:08.951Z,10.72
2019-03-22T04:18:14.588Z,10.70
2019-03-22T04:19:20.133Z,10.70
2019-03-22T04:20:25.801Z,10.70
2019-03-22T04:21:31.391Z,10.70
2019-03-22T04:22:36.896Z,10.69
2019-03-22T04:23:42.666Z,10.69
2019-03-22T04:24:48.191Z,10.68
2019-03-22T04:25:53.923Z,10.67
2019-03-22T04:26:59.734Z,10.67
2019-03-22T04:28:05.467Z,10.66
2019-03-22T04:29:11.295Z,10.65
2019-03-22T04:30:16.883Z,10.63
2019-03-22T04:31:22.827Z,10.63
2019-03-22T04:32:29.152Z,10.62
2019-03-22T04:33:34.830Z,10.61
2019-03-22T04:34:40.848Z,10.57
2019-03-22T04:35:46.851Z,10.60
2019-03-22T04:36:53.039Z,10.59
2019-03-22T04:37:59.105Z,10.59
2019-03-22T04:39:06.851Z,10.58
2019-03-22T04:40:25.229Z,10.56
2019-03-22T04:41:31.019Z,10.56
2019-03-22T04:42:36.718Z,10.55
2019-03-22T04:43:42.456Z,10.53
2019-03-22T04:44:48.594Z,10.54
2019-03-22T04:45:54.875Z,10.50
2019-03-22T04:47:00.999Z,10.50
2019-03-22T04:48:21.559Z,10.43
2019-03-22T04:49:28.202Z,10.49
2019-03-22T04:50:37.356Z,10.48
2019-03-22T04:51:43.562Z,10.47
2019-03-22T04:52:50.008Z,10.45
2019-03-22T04:54:02.753Z,10.44
2019-03-22T04:55:09.197Z,10.44
2019-03-22T04:56:17.636Z,10.44
2019-03-22T04:57:24.862Z,10.42
2019-03-22T04:58:31.883Z,10.42
2019-03-22T04:59:39.398Z,10.42
2019-03-22T05:00:45.901Z,10.40
2019-03-22T05:01:53.825Z,10.40
2019-03-22T05:03:00.585Z,10.38
2019-03-22T05:04:08.480Z,10.38
2019-03-22T05:05:15.178Z,10.38
2019-03-22T05:06:21.939Z,10.36
2019-03-22T05:07:28.026Z,10.36
2019-03-22T05:08:37.352Z,10.36
2019-03-22T05:09:44.401Z,10.36
2019-03-22T05:10:50.741Z,10.35
2019-03-22T05:11:58.330Z,10.34
2019-03-22T05:13:05.120Z,10.34
2019-03-22T05:14:12.055Z,10.33
2019-03-22T05:15:19.777Z,10.33
2019-03-22T05:16:25.604Z,10.32
2019-03-22T05:17:32.625Z,10.31
2019-03-22T05:18:39.661Z,10.31
2019-03-22T05:19:49.746Z,10.29
2019-03-22T05:20:56.222Z,10.28
2019-03-22T05:22:03.431Z,10.26
2019-03-22T05:23:09.960Z,10.26
2019-03-22T05:24:18.421Z,10.25
2019-03-22T05:25:25.608Z,10.25
2019-03-22T05:26:34.514Z,10.24
2019-03-22T05:27:43.880Z,10.24
2019-03-22T05:28:50.979Z,10.23
2019-03-22T05:29:59.329Z,10.23
2019-03-22T05:31:41.947Z,10.22
2019-03-22T05:32:47.665Z,10.21
2019-03-22T05:33:53.313Z,10.21
2019-03-22T05:34:59.089Z,10.21
2019-03-22T05:36:05.039Z,10.21
2019-03-22T05:37:10.756Z,10.19
2019-03-22T05:38:16.384Z,10.20
2019-03-22T05:39:22.334Z,10.20
2019-03-22T05:40:27.975Z,10.19
2019-03-22T05:41:34.143Z,10.19
2019-03-22T05:42:39.673Z,10.20
2019-03-22T05:43:45.359Z,10.21
2019-03-22T05:44:51.608Z,10.21
2019-03-22T05:45:57.460Z,10.22
2019-03-22T05:47:03.154Z,10.21
2019-03-22T05:48:09.463Z,10.21
2019-03-22T05:49:15.093Z,10.23
2019-03-22T05:50:20.735Z,10.21
2019-03-22T05:51:26.790Z,10.22
2019-03-22T05:52:32.397Z,10.22
2019-03-22T05:53:38.002Z,10.24
2019-03-22T05:54:43.957Z,10.22
2019-03-22T05:55:49.871Z,10.24
2019-03-22T05:56:55.941Z,10.24
2019-03-22T05:58:02.242Z,10.23
2019-03-22T05:59:07.888Z,10.23
2019-03-22T06:00:15.422Z,10.23
2019-03-22T06:01:21.055Z,10.19
2019-03-22T06:02:26.790Z,10.19
2019-03-22T06:03:32.347Z,10.20
2019-03-22T06:04:38.073Z,10.24
2019-03-22T06:05:43.841Z,10.24
2019-03-22T06:06:49.490Z,10.24
2019-03-22T06:07:55.010Z,10.23
2019-03-22T06:09:00.688Z,10.23
2019-03-22T06:10:06.910Z,10.23
2019-03-22T06:11:12.502Z,10.23
2019-03-22T06:12:18.097Z,10.24
2019-03-22T06:13:24.049Z,10.24
2019-03-22T06:14:29.786Z,10.25
2019-03-22T06:15:35.910Z,10.24
2019-03-22T06:16:41.508Z,10.25
2019-03-22T06:17:51.889Z,10.26
2019-03-22T06:18:55.226Z,10.26
2019-03-22T06:20:00.847Z,10.24
2019-03-22T06:21:06.422Z,10.24
2019-03-22T06:22:11.960Z,10.30
2019-03-22T06:23:17.587Z,10.30
2019-03-22T06:24:23.561Z,10.30
2019-03-22T06:25:29.191Z,10.31
2019-03-22T06:26:34.855Z,10.32
2019-03-22T06:27:40.712Z,10.31
2019-03-22T06:28:46.616Z,10.32
2019-03-22T06:29:54.363Z,10.34
2019-03-22T06:30:59.480Z,10.33
2019-03-22T06:32:05.252Z,10.34
2019-03-22T06:33:10.949Z,10.36
2019-03-22T06:34:17.296Z,10.37
2019-03-22T06:35:23.111Z,10.37
2019-03-22T06:36:29.062Z,10.38
2019-03-22T06:37:35.092Z,10.41
2019-03-22T06:38:41.011Z,10.42
2019-03-22T06:39:46.598Z,10.43
2019-03-22T06:40:52.277Z,10.46
2019-03-22T06:41:57.975Z,10.48
2019-03-22T06:43:03.572Z,10.48
2019-03-22T06:44:09.590Z,10.51
2019-03-22T06:45:15.208Z,10.51
2019-03-22T06:46:20.891Z,10.52
2019-03-22T06:47:26.638Z,10.52
2019-03-22T06:48:32.589Z,10.48
2019-03-22T06:49:38.498Z,10.53
2019-03-22T06:50:44.111Z,10.53
2019-03-22T06:51:50.191Z,10.54
2019-03-22T06:52:55.980Z,10.54
2019-03-22T06:54:02.143Z,10.56
2019-03-22T06:55:08.843Z,10.55
2019-03-22T06:56:14.537Z,10.54
2019-03-22T06:57:20.581Z,10.56
2019-03-22T06:58:26.552Z,10.55
2019-03-22T06:59:32.333Z,10.57
2019-03-22T07:00:37.941Z,10.58
2019-03-22T07:01:43.994Z,10.58
2019-03-22T07:02:49.823Z,10.59
2019-03-22T07:03:55.526Z,10.60
2019-03-22T07:05:01.431Z,10.60
2019-03-22T07:06:07.087Z,10.61
2019-03-22T07:07:12.677Z,10.61
2019-03-22T07:08:18.809Z,10.60
2019-03-22T07:09:24.666Z,10.58
2019-03-22T07:10:30.757Z,10.58
2019-03-22T07:11:36.267Z,10.61
2019-03-22T07:12:41.948Z,10.62
2019-03-22T07:13:47.538Z,10.62
2019-03-22T07:14:53.418Z,10.62
2019-03-22T07:15:59.143Z,10.62
2019-03-22T07:17:04.765Z,10.62
2019-03-22T07:18:10.562Z,10.63
2019-03-22T07:19:16.251Z,10.64
2019-03-22T07:20:22.366Z,10.65
2019-03-22T07:21:28.425Z,10.65
2019-03-22T07:22:34.330Z,10.66
2019-03-22T07:23:40.067Z,10.68
2019-03-22T07:24:46.170Z,10.69
2019-03-22T07:25:51.914Z,10.70
2019-03-22T07:26:57.782Z,10.70
2019-03-22T07:28:03.698Z,10.71
2019-03-22T07:29:09.592Z,10.72
2019-03-22T07:30:18.828Z,10.73
2019-03-22T07:31:23.515Z,10.73
2019-03-22T07:32:29.306Z,10.75
2019-03-22T07:33:35.221Z,10.75
2019-03-22T07:34:40.841Z,10.75
2019-03-22T07:35:46.527Z,10.75
2019-03-22T07:36:52.497Z,10.73
2019-03-22T07:37:58.306Z,10.75
2019-03-22T07:39:05.729Z,10.76
2019-03-22T07:40:11.959Z,10.76
2019-03-22T07:41:17.737Z,10.76
2019-03-22T07:42:23.574Z,10.72
2019-03-22T07:43:29.669Z,10.78
2019-03-22T07:44:35.353Z,10.79
2019-03-22T07:45:41.263Z,10.81
2019-03-22T07:46:46.955Z,10.82
2019-03-22T07:47:52.637Z,10.84
2019-03-22T07:48:58.559Z,10.86
2019-03-22T07:50:04.821Z,10.89
2019-03-22T07:51:10.680Z,10.91
2019-03-22T07:52:16.636Z,10.88
2019-03-22T07:53:22.591Z,10.94
2019-03-22T07:54:28.211Z,10.96
2019-03-22T07:55:33.816Z,10.99
2019-03-22T07:56:39.638Z,11.01
2019-03-22T07:57:45.288Z,11.04
2019-03-22T07:58:51.192Z,11.05
2019-03-22T07:59:56.831Z,11.07
2019-03-22T08:01:02.424Z,11.08
2019-03-22T08:02:08.621Z,11.10
2019-03-22T08:03:14.255Z,11.12
2019-03-22T08:04:19.927Z,11.14
2019-03-22T08:05:25.901Z,11.17
2019-03-22T08:06:31.888Z,11.20
2019-03-22T08:07:37.462Z,11.20
2019-03-22T08:08:43.171Z,11.24
2019-03-22T08:09:51.250Z,11.26
2019-03-22T08:10:56.833Z,11.28
2019-03-22T08:12:02.680Z,11.30
2019-03-22T08:13:08.625Z,11.33
2019-03-22T08:14:16.406Z,11.35
2019-03-22T08:15:32.681Z,11.37
2019-03-22T08:16:38.346Z,11.40
2019-03-22T08:17:44.355Z,11.45
2019-03-22T08:18:50.037Z,11.45
2019-03-22T08:19:57.255Z,11.47
2019-03-22T08:21:03.176Z,11.51
2019-03-22T08:22:08.743Z,11.53
2019-03-22T08:23:22.322Z,11.56
2019-03-22T08:24:28.090Z,11.58
2019-03-22T08:25:34.162Z,11.59
2019-03-22T08:26:40.136Z,11.64
2019-03-22T08:27:45.969Z,11.66
2019-03-22T08:28:51.547Z,11.69
2019-03-22T08:29:57.171Z,11.71
2019-03-22T08:31:05.415Z,11.74
2019-03-22T08:32:10.140Z,11.77
2019-03-22T08:33:16.049Z,11.80
2019-03-22T08:34:21.666Z,11.83
2019-03-22T08:35:27.389Z,11.86
2019-03-22T08:36:33.141Z,11.90
2019-03-22T08:37:38.798Z,11.92
2019-03-22T08:38:44.565Z,11.94
2019-03-22T08:39:50.357Z,11.96
2019-03-22T08:40:55.934Z,11.99
2019-03-22T08:42:01.568Z,12.01
2019-03-22T08:43:07.507Z,12.04
2019-03-22T08:44:13.109Z,12.06
2019-03-22T08:45:18.788Z,12.08
2019-03-22T08:46:25.255Z,12.10
2019-03-22T08:47:34.161Z,12.13
2019-03-22T08:48:38.302Z,12.17
2019-03-22T08:49:44.130Z,12.20
2019-03-22T08:50:50.243Z,12.23
2019-03-22T08:51:55.813Z,12.25
2019-03-22T08:53:01.548Z,12.27
2019-03-22T08:54:07.467Z,12.29
2019-03-22T08:55:13.208Z,12.32
2019-03-22T08:56:18.822Z,12.35
2019-03-22T08:57:25.199Z,12.38
2019-03-22T08:58:30.959Z,12.40
2019-03-22T08:59:36.848Z,12.43
2019-03-22T09:00:56.398Z,12.47
2019-03-22T09:01:51.445Z,12.48
2019-03-22T09:02:57.224Z,12.50
2019-03-22T09:04:02.860Z,12.53
2019-03-22T09:05:09.541Z,12.56
2019-03-22T09:06:15.109Z,12.60
2019-03-22T09:07:20.776Z,12.63
2019-03-22T09:08:26.588Z,12.65
2019-03-22T09:09:41.502Z,12.69
2019-03-22T09:10:40.042Z,12.72
2019-03-22T09:11:46.053Z,12.75
2019-03-22T09:12:52.531Z,12.80
2019-03-22T09:13:58.987Z,12.83
2019-03-22T09:15:05.108Z,12.86
2019-03-22T09:16:11.058Z,12.89
2019-03-22T09:17:16.665Z,12.91
2019-03-22T09:18:22.274Z,12.95
2019-03-22T09:19:27.893Z,12.97
2019-03-22T09:20:33.929Z,13.00
2019-03-22T09:21:39.619Z,13.03
2019-03-22T09:22:46.006Z,13.05
2019-03-22T09:23:51.730Z,13.08
2019-03-22T09:24:57.628Z,13.11
2019-03-22T09:26:03.472Z,13.12
2019-03-22T09:27:09.088Z,13.13
2019-03-22T09:28:15.134Z,13.13
2019-03-22T09:29:21.215Z,13.15
2019-03-22T09:30:27.040Z,13.16
2019-03-22T09:31:33.375Z,13.16
2019-03-22T09:32:39.245Z,13.17
2019-03-22T09:33:45.095Z,13.17
2019-03-22T09:34:51.085Z,13.18
2019-03-22T09:35:56.711Z,13.20
2019-03-22T09:37:02.600Z,13.22
2019-03-22T09:38:13.170Z,13.23
2019-03-22T09:39:16.207Z,13.24
2019-03-22T09:40:22.396Z,13.26
2019-03-22T09:41:28.465Z,13.27
2019-03-22T09:42:34.160Z,13.29
2019-03-22T09:43:39.901Z,13.32
2019-03-22T09:44:45.899Z,13.35
2019-03-22T09:45:52.363Z,13.37
2019-03-22T09:46:58.102Z,13.41
2019-03-22T09:48:06.112Z,13.42
2019-03-22T09:49:11.893Z,13.46
2019-03-22T09:50:17.688Z,13.48
2019-03-22T09:51:23.463Z,13.50
2019-03-22T09:52:29.531Z,13.53
2019-03-22T09:53:35.237Z,13.54
2019-03-22T09:54:41.504Z,13.56
2019-03-22T09:55:47.570Z,13.58
2019-03-22T09:56:53.345Z,13.59
2019-03-22T09:57:59.044Z,13.60
2019-03-22T09:59:04.993Z,13.62
2019-03-22T10:00:13.660Z,13.63
2019-03-22T10:01:23.919Z,13.63
2019-03-22T10:02:27.436Z,13.65
2019-03-22T10:03:33.153Z,13.65
2019-03-22T10:04:38.862Z,13.66
2019-03-22T10:05:45.326Z,13.67
2019-03-22T10:06:51.272Z,13.69
2019-03-22T10:07:57.278Z,13.71
2019-03-22T10:09:05.396Z,13.72
2019-03-22T10:10:10.975Z,13.75
2019-03-22T10:11:17.242Z,13.75
2019-03-22T10:12:23.293Z,13.76
2019-03-22T10:13:29.123Z,13.80
2019-03-22T10:14:34.966Z,13.83
2019-03-22T10:15:47.004Z,13.87
2019-03-22T10:16:52.769Z,13.89
2019-03-22T10:17:58.494Z,13.91
2019-03-22T10:19:04.254Z,13.93
2019-03-22T10:20:13.662Z,13.97
2019-03-22T10:21:22.750Z,14.01
2019-03-22T10:22:27.194Z,14.03
2019-03-22T10:23:32.889Z,14.07
2019-03-22T10:24:44.316Z,14.09
2019-03-22T10:25:50.165Z,14.11
2019-03-22T10:26:55.833Z,14.13
2019-03-22T10:28:02.283Z,14.16
2019-03-22T10:29:08.157Z,14.18
2019-03-22T10:30:14.329Z,14.21
2019-03-22T10:31:20.156Z,14.23
2019-03-22T10:32:25.797Z,14.24
2019-03-22T10:33:31.624Z,14.27
2019-03-22T10:34:39.747Z,14.30
2019-03-22T10:35:44.944Z,14.31
2019-03-22T10:36:50.736Z,14.34
2019-03-22T10:38:00.845Z,14.36
2019-03-22T10:39:06.703Z,14.37
2019-03-22T10:40:12.794Z,14.41
2019-03-22T10:41:18.865Z,14.42
2019-03-22T10:42:28.047Z,14.44
2019-03-22T10:43:33.695Z,14.48
2019-03-22T10:44:39.781Z,14.50
2019-03-22T10:45:45.514Z,14.53
2019-03-22T10:46:51.223Z,14.57
2019-03-22T10:47:56.886Z,14.62
2019-03-22T10:49:02.805Z,14.66
2019-03-22T10:50:09.176Z,14.70
2019-03-22T10:51:14.974Z,14.74
2019-03-22T10:52:20.731Z,14.75
2019-03-22T10:53:26.676Z,14.76
2019-03-22T10:54:32.439Z,14.77
2019-03-22T10:55:38.087Z,14.78
2019-03-22T10:56:44.168Z,14.80
2019-03-22T10:57:50.664Z,14.82
2019-03-22T10:58:56.718Z,14.84
2019-03-22T11:00:02.299Z,14.88
2019-03-22T11:01:08.775Z,14.92
2019-03-22T11:02:14.992Z,14.95
2019-03-22T11:03:20.778Z,14.97
2019-03-22T11:04:26.680Z,15.00
2019-03-22T11:05:32.770Z,15.03
2019-03-22T11:06:38.538Z,15.05
2019-03-22T11:07:44.452Z,15.06
2019-03-22T11:08:50.925Z,15.06
2019-03-22T11:09:57.015Z,15.08
2019-03-22T11:11:02.793Z,15.11
2019-03-22T11:12:12.542Z,15.13
2019-03-22T11:13:19.034Z,15.18
2019-03-22T11:14:24.760Z,15.22
2019-03-22T11:15:30.452Z,15.26
2019-03-22T11:16:36.329Z,15.31
2019-03-22T11:17:42.498Z,15.34
2019-03-22T11:18:48.356Z,15.40
2019-03-22T11:19:54.040Z,15.43
2019-03-22T11:21:05.183Z,15.46
2019-03-22T11:22:07.728Z,15.46
2019-03-22T11:23:13.605Z,15.47
2019-03-22T11:24:19.614Z,15.46
2019-03-22T11:25:25.288Z,15.47
2019-03-22T11:26:31.251Z,15.48
2019-03-22T11:27:37.211Z,15.50
2019-03-22T11:28:43.235Z,15.51
2019-03-22T11:29:48.902Z,15.52
2019-03-22T11:31:01.123Z,15.55
2019-03-22T11:32:12.069Z,15.57
2019-03-22T11:33:09.925Z,15.60
2019-03-22T11:34:15.694Z,15.65
2019-03-22T11:35:21.316Z,15.69
2019-03-22T11:36:27.061Z,15.71
2019-03-22T11:37:32.809Z,15.72
2019-03-22T11:38:38.460Z,15.72
2019-03-22T11:39:43.986Z,15.72
2019-03-22T11:40:49.667Z,15.73
2019-03-22T11:41:55.628Z,15.72
2019-03-22T11:43:08.550Z,15.74
2019-03-22T11:44:09.030Z,15.74
2019-03-22T11:45:17.160Z,15.75
2019-03-22T11:46:22.862Z,15.75
2019-03-22T11:47:28.711Z,15.78
2019-03-22T11:48:34.758Z,15.81
2019-03-22T11:49:40.418Z,15.84
2019-03-22T11:50:49.873Z,15.86
2019-03-22T11:51:55.681Z,15.90
2019-03-22T11:53:01.725Z,15.92
2019-03-22T11:54:07.618Z,15.95
2019-03-22T11:55:14.235Z,15.97
2019-03-22T11:56:19.903Z,15.99
2019-03-22T11:57:25.662Z,16.01
2019-03-22T11:58:31.364Z,16.04
2019-03-22T11:59:37.431Z,16.06
2019-03-22T12:00:43.457Z,16.07
2019-03-22T12:01:49.582Z,16.10
2019-03-22T12:02:55.831Z,16.14
2019-03-22T12:04:01.548Z,16.16
2019-03-22T12:05:07.817Z,16.19
2019-03-22T12:06:13.772Z,16.22
2019-03-22T12:07:19.984Z,16.26
2019-03-22T12:08:25.826Z,16.27
2019-03-22T12:09:31.585Z,16.28
2019-03-22T12:10:37.246Z,16.31
2019-03-22T12:11:42.893Z,16.35
2019-03-22T12:12:49.079Z,16.38
2019-03-22T12:13:54.737Z,16.41
2019-03-22T12:15:00.454Z,16.41
2019-03-22T12:16:06.245Z,16.43
2019-03-22T12:17:11.859Z,16.43
2019-03-22T12:18:18.372Z,16.42
2019-03-22T12:19:24.365Z,16.44
2019-03-22T12:20:30.000Z,16.46
2019-03-22T12:21:35.990Z,16.46
2019-03-22T12:22:42.387Z,16.48
2019-03-22T12:23:48.528Z,16.49
2019-03-22T12:24:54.258Z,16.49
2019-03-22T12:26:00.345Z,16.48
2019-03-22T12:27:06.203Z,16.48
2019-03-22T12:28:11.835Z,16.49
2019-03-22T12:29:17.635Z,16.50
2019-03-22T12:30:23.303Z,16.52
2019-03-22T12:31:29.559Z,16.53
2019-03-22T12:32:35.910Z,16.55
2019-03-22T12:33:42.270Z,16.57
2019-03-22T12:34:48.375Z,16.60
2019-03-22T12:35:54.394Z,16.63
2019-03-22T12:37:00.160Z,16.69
2019-03-22T12:38:05.985Z,16.73
2019-03-22T12:39:11.954Z,16.76
2019-03-22T12:40:18.676Z,16.79
2019-03-22T12:41:24.915Z,16.80
2019-03-22T12:42:30.919Z,16.84
2019-03-22T12:43:36.959Z,16.87
2019-03-22T12:44:42.697Z,16.88
2019-03-22T12:45:48.371Z,16.91
2019-03-22T12:46:53.983Z,16.90
2019-03-22T12:47:59.654Z,16.90
2019-03-22T12:49:05.767Z,16.90
2019-03-22T12:50:11.795Z,16.92
2019-03-22T12:51:17.393Z,16.93
2019-03-22T12:52:23.552Z,16.94
2019-03-22T12:53:29.250Z,16.95
2019-03-22T12:54:35.195Z,16.96
2019-03-22T12:55:40.864Z,16.98
2019-03-22T12:56:46.900Z,16.99
2019-03-22T12:57:53.220Z,16.98
2019-03-22T12:58:58.878Z,17.00
2019-03-22T13:00:05.746Z,17.02
2019-03-22T13:01:11.455Z,17.03
2019-03-22T13:02:17.496Z,17.04
2019-03-22T13:03:24.365Z,17.08
2019-03-22T13:04:30.182Z,17.12
2019-03-22T13:05:36.041Z,17.15
2019-03-22T13:06:41.711Z,17.19
2019-03-22T13:07:47.436Z,17.22
2019-03-22T13:08:53.549Z,17.25
2019-03-22T13:09:59.351Z,17.26
2019-03-22T13:11:05.056Z,17.25
2019-03-22T13:12:11.543Z,17.26
2019-03-22T13:13:17.332Z,17.27
2019-03-22T13:14:24.468Z,17.27
2019-03-22T13:15:30.186Z,17.25
2019-03-22T13:16:36.014Z,17.27
2019-03-22T13:17:41.779Z,17.28
2019-03-22T13:18:50.424Z,17.32
2019-03-22T13:19:54.966Z,17.36
2019-03-22T13:21:00.590Z,17.38
2019-03-22T13:22:06.413Z,17.41
2019-03-22T13:23:12.071Z,17.44
2019-03-22T13:24:18.100Z,17.46
2019-03-22T13:25:23.863Z,17.45
2019-03-22T13:26:29.874Z,17.46
2019-03-22T13:27:35.667Z,17.46
2019-03-22T13:28:41.361Z,17.45
2019-03-22T13:29:47.186Z,17.44
2019-03-22T13:30:52.958Z,17.46
2019-03-22T13:31:59.010Z,17.47
2019-03-22T13:33:05.234Z,17.49
2019-03-22T13:34:10.907Z,17.52
2019-03-22T13:35:16.682Z,17.54
2019-03-22T13:36:23.525Z,17.58
2019-03-22T13:37:29.479Z,17.59
2019-03-22T13:38:35.212Z,17.62
2019-03-22T13:39:41.046Z,17.64
2019-03-22T13:40:46.781Z,17.65
2019-03-22T13:41:52.483Z,17.65
2019-03-22T13:42:58.256Z,17.64
2019-03-22T13:44:04.373Z,17.65
2019-03-22T13:45:10.181Z,17.63
2019-03-22T13:46:16.155Z,17.63
2019-03-22T13:47:21.984Z,17.61
2019-03-22T13:48:27.643Z,17.63
2019-03-22T13:49:33.368Z,17.65
2019-03-22T13:50:39.028Z,17.70
2019-03-22T13:51:44.743Z,17.71
2019-03-22T13:52:50.483Z,17.73
2019-03-22T13:53:56.549Z,17.73
2019-03-22T13:55:02.225Z,17.73
2019-03-22T13:56:07.987Z,17.76
2019-03-22T13:57:13.694Z,17.78
2019-03-22T13:58:19.765Z,17.79
2019-03-22T13:59:25.500Z,17.79
2019-03-22T14:00:31.306Z,17.80
2019-03-22T14:01:37.165Z,17.80
2019-03-22T14:02:42.829Z,17.79
2019-03-22T14:03:48.438Z,17.80
2019-03-22T14:04:54.127Z,17.79
2019-03-22T14:05:59.878Z,17.79
2019-03-22T14:07:05.619Z,17.78
2019-03-22T14:08:11.510Z,17.78
2019-03-22T14:09:17.104Z,17.78
2019-03-22T14:10:30.962Z,17.79
2019-03-22T14:11:37.140Z,17.82
2019-03-22T14:12:42.990Z,17.85